Now boarding.
Please wait.

menu

Roraima Airlines

Roraima Airlines is a Venezuelan Virtual Airline that seeks to show Venezuela to the world. Discover the beautiful scenery and challenging airports of South America with Roraima. We operate a modern growing fleet of aircraft and aspire to be at the forefront of virtual aviation in Venezuela. Our modern pilot pirep system uses latest technologies, and our continuous development will keep any vPilot engaged and excited about whats coming next.

Come and join us in revolutionising Venezuelan Virtual Aviation!

  • The pilot must be at least 16 years old
  • The pilot must be in possession of a copy of FSX and P3D
  • The pilot must file a valid flight PIREP once a month

(Coming Soon)


Vatsim Radar

Route map coming soon...

CID Callsign Departure Destination Aircraft Pilot Rating

Fleet


Hubs

SVMI Caracas Simón Bolívar International Airport

Airport Information METAR Runway Information

Current Weather:

SVMI 162300Z 02002KT 9999 SCT016 29/26 Q1008

Runway Facts:

Direction Length m Length ft Elevation m Elevation ft Surface
10/28 3,610 11,483 72 m 235 ft Asphalt
09/27 3,270 9,930 72 m 235 ft Asphalt